sensor_id;sensor_type;location;lat;lon;timestamp;P1;durP1;ratioP1;P2;durP2;ratioP2
80411;SDS011;69749;42.684;23.360;2023-12-20T00:01:02;134.77;;;70.82;;
80411;SDS011;69749;42.684;23.360;2023-12-20T00:03:28;137.95;;;69.15;;
80411;SDS011;69749;42.684;23.360;2023-12-20T00:05:53;138.75;;;71.60;;
80411;SDS011;69749;42.684;23.360;2023-12-20T00:08:19;129.52;;;67.63;;
80411;SDS011;69749;42.684;23.360;2023-12-20T00:10:44;130.90;;;69.55;;
80411;SDS011;69749;42.684;23.360;2023-12-20T00:13:10;123.25;;;66.57;;
80411;SDS011;69749;42.684;23.360;2023-12-20T00:15:36;130.82;;;69.70;;
80411;SDS011;69749;42.684;23.360;2023-12-20T00:18:02;129.32;;;70.95;;
80411;SDS011;69749;42.684;23.360;2023-12-20T00:20:28;143.55;;;75.38;;
80411;SDS011;69749;42.684;23.360;2023-12-20T00:22:55;130.95;;;68.95;;
80411;SDS011;69749;42.684;23.360;2023-12-20T00:25:22;135.57;;;70.85;;
80411;SDS011;69749;42.684;23.360;2023-12-20T00:27:48;135.05;;;70.43;;
80411;SDS011;69749;42.684;23.360;2023-12-20T00:30:14;136.93;;;70.60;;
80411;SDS011;69749;42.684;23.360;2023-12-20T00:32:39;139.32;;;68.63;;
80411;SDS011;69749;42.684;23.360;2023-12-20T00:35:11;131.32;;;67.68;;
80411;SDS011;69749;42.684;23.360;2023-12-20T00:37:40;127.40;;;67.60;;
80411;SDS011;69749;42.684;23.360;2023-12-20T00:40:06;132.52;;;67.72;;
80411;SDS011;69749;42.684;23.360;2023-12-20T00:42:32;132.93;;;68.78;;
80411;SDS011;69749;42.684;23.360;2023-12-20T00:44:58;129.32;;;66.57;;
80411;SDS011;69749;42.684;23.360;2023-12-20T00:47:24;133.45;;;67.90;;
80411;SDS011;69749;42.684;23.360;2023-12-20T00:49:50;129.32;;;71.10;;
80411;SDS011;69749;42.684;23.360;2023-12-20T00:52:15;147.95;;;76.55;;
80411;SDS011;69749;42.684;23.360;2023-12-20T00:54:42;166.82;;;86.47;;
80411;SDS011;69749;42.684;23.360;2023-12-20T00:57:08;187.25;;;98.60;;
80411;SDS011;69749;42.684;23.360;2023-12-20T00:59:34;186.75;;;94.70;;
80411;SDS011;69749;42.684;23.360;2023-12-20T01:02:00;199.75;;;98.47;;
80411;SDS011;69749;42.684;23.360;2023-12-20T01:04:25;183.15;;;98.40;;
80411;SDS011;69749;42.684;23.360;2023-12-20T01:06:51;198.63;;;104.07;;
80411;SDS011;69749;42.684;23.360;2023-12-20T01:09:17;182.50;;;95.38;;
80411;SDS011;69749;42.684;23.360;2023-12-20T01:11:43;176.40;;;92.50;;
80411;SDS011;69749;42.684;23.360;2023-12-20T01:14:09;138.23;;;75.13;;
80411;SDS011;69749;42.684;23.360;2023-12-20T01:16:34;148.70;;;79.60;;
80411;SDS011;69749;42.684;23.360;2023-12-20T01:19:00;193.55;;;97.47;;
80411;SDS011;69749;42.684;23.360;2023-12-20T01:21:25;198.00;;;98.63;;
80411;SDS011;69749;42.684;23.360;2023-12-20T01:23:51;194.95;;;99.50;;
80411;SDS011;69749;42.684;23.360;2023-12-20T01:26:16;182.25;;;91.90;;
80411;SDS011;69749;42.684;23.360;2023-12-20T01:28:42;175.13;;;88.13;;
80411;SDS011;69749;42.684;23.360;2023-12-20T01:31:08;168.75;;;86.38;;
80411;SDS011;69749;42.684;23.360;2023-12-20T01:33:33;154.15;;;81.82;;
80411;SDS011;69749;42.684;23.360;2023-12-20T01:35:59;213.52;;;109.80;;
80411;SDS011;69749;42.684;23.360;2023-12-20T01:38:25;218.05;;;109.70;;
80411;SDS011;69749;42.684;23.360;2023-12-20T01:40:50;220.80;;;113.25;;
80411;SDS011;69749;42.684;23.360;2023-12-20T01:43:16;234.88;;;118.40;;
80411;SDS011;69749;42.684;23.360;2023-12-20T01:45:41;246.27;;;123.38;;
80411;SDS011;69749;42.684;23.360;2023-12-20T01:48:07;239.23;;;122.57;;
80411;SDS011;69749;42.684;23.360;2023-12-20T01:50:35;238.15;;;119.35;;
80411;SDS011;69749;42.684;23.360;2023-12-20T01:55:29;227.23;;;111.10;;
80411;SDS011;69749;42.684;23.360;2023-12-20T01:57:58;232.07;;;112.18;;
80411;SDS011;69749;42.684;23.360;2023-12-20T02:00:25;233.20;;;116.22;;
80411;SDS011;69749;42.684;23.360;2023-12-20T02:02:53;223.30;;;113.07;;
80411;SDS011;69749;42.684;23.360;2023-12-20T02:05:22;215.32;;;114.35;;
80411;SDS011;69749;42.684;23.360;2023-12-20T02:07:50;220.25;;;113.53;;
80411;SDS011;69749;42.684;23.360;2023-12-20T02:10:16;210.18;;;105.80;;
80411;SDS011;69749;42.684;23.360;2023-12-20T02:12:41;201.13;;;100.43;;
80411;SDS011;69749;42.684;23.360;2023-12-20T02:15:07;190.00;;;98.35;;
80411;SDS011;69749;42.684;23.360;2023-12-20T02:17:33;173.63;;;89.22;;
80411;SDS011;69749;42.684;23.360;2023-12-20T02:19:59;162.43;;;84.13;;
80411;SDS011;69749;42.684;23.360;2023-12-20T02:22:24;150.65;;;82.63;;
80411;SDS011;69749;42.684;23.360;2023-12-20T02:24:50;156.10;;;85.25;;
80411;SDS011;69749;42.684;23.360;2023-12-20T02:27:16;153.30;;;86.13;;
80411;SDS011;69749;42.684;23.360;2023-12-20T02:32:10;152.88;;;77.05;;
80411;SDS011;69749;42.684;23.360;2023-12-20T02:34:36;152.05;;;79.85;;
80411;SDS011;69749;42.684;23.360;2023-12-20T02:37:01;157.13;;;81.60;;
80411;SDS011;69749;42.684;23.360;2023-12-20T02:39:27;152.55;;;80.03;;
80411;SDS011;69749;42.684;23.360;2023-12-20T02:41:52;159.55;;;81.63;;
80411;SDS011;69749;42.684;23.360;2023-12-20T02:44:18;157.52;;;81.85;;
80411;SDS011;69749;42.684;23.360;2023-12-20T02:46:43;150.50;;;76.28;;
80411;SDS011;69749;42.684;23.360;2023-12-20T02:49:09;132.50;;;68.78;;
80411;SDS011;69749;42.684;23.360;2023-12-20T02:51:34;116.65;;;65.45;;
80411;SDS011;69749;42.684;23.360;2023-12-20T02:54:03;112.43;;;61.85;;
80411;SDS011;69749;42.684;23.360;2023-12-20T02:56:28;124.80;;;62.42;;
80411;SDS011;69749;42.684;23.360;2023-12-20T02:58:54;116.20;;;61.97;;
80411;SDS011;69749;42.684;23.360;2023-12-20T03:01:19;113.50;;;60.83;;
80411;SDS011;69749;42.684;23.360;2023-12-20T03:03:45;110.90;;;62.25;;
80411;SDS011;69749;42.684;23.360;2023-12-20T03:06:10;102.05;;;55.80;;
80411;SDS011;69749;42.684;23.360;2023-12-20T03:08:36;93.63;;;50.83;;
80411;SDS011;69749;42.684;23.360;2023-12-20T03:11:02;95.35;;;51.60;;
80411;SDS011;69749;42.684;23.360;2023-12-20T03:13:27;103.18;;;49.90;;
80411;SDS011;69749;42.684;23.360;2023-12-20T03:15:53;81.88;;;46.72;;
80411;SDS011;69749;42.684;23.360;2023-12-20T03:18:18;83.20;;;45.63;;
80411;SDS011;69749;42.684;23.360;2023-12-20T03:20:44;84.07;;;46.10;;
80411;SDS011;69749;42.684;23.360;2023-12-20T03:23:09;79.03;;;44.28;;
80411;SDS011;69749;42.684;23.360;2023-12-20T03:25:35;76.88;;;42.55;;
80411;SDS011;69749;42.684;23.360;2023-12-20T03:28:00;71.25;;;41.50;;
80411;SDS011;69749;42.684;23.360;2023-12-20T03:30:26;79.90;;;41.67;;
80411;SDS011;69749;42.684;23.360;2023-12-20T03:32:51;77.65;;;43.65;;
80411;SDS011;69749;42.684;23.360;2023-12-20T03:35:16;71.50;;;39.42;;
80411;SDS011;69749;42.684;23.360;2023-12-20T03:37:42;76.22;;;41.55;;
80411;SDS011;69749;42.684;23.360;2023-12-20T03:40:08;75.25;;;41.53;;
80411;SDS011;69749;42.684;23.360;2023-12-20T03:42:33;77.47;;;42.47;;
80411;SDS011;69749;42.684;23.360;2023-12-20T03:44:59;73.97;;;39.10;;
80411;SDS011;69749;42.684;23.360;2023-12-20T03:47:24;75.90;;;41.78;;
80411;SDS011;69749;42.684;23.360;2023-12-20T03:49:50;58.30;;;32.85;;
80411;SDS011;69749;42.684;23.360;2023-12-20T03:52:15;64.55;;;34.67;;
80411;SDS011;69749;42.684;23.360;2023-12-20T03:54:41;61.15;;;33.13;;
80411;SDS011;69749;42.684;23.360;2023-12-20T03:57:09;50.03;;;27.95;;
80411;SDS011;69749;42.684;23.360;2023-12-20T03:59:35;50.08;;;26.17;;
80411;SDS011;69749;42.684;23.360;2023-12-20T04:02:01;54.90;;;28.52;;
80411;SDS011;69749;42.684;23.360;2023-12-20T04:04:27;50.88;;;27.35;;
80411;SDS011;69749;42.684;23.360;2023-12-20T04:06:52;56.20;;;29.17;;
80411;SDS011;69749;42.684;23.360;2023-12-20T04:09:18;53.80;;;27.60;;
80411;SDS011;69749;42.684;23.360;2023-12-20T04:11:43;55.40;;;28.38;;
80411;SDS011;69749;42.684;23.360;2023-12-20T04:14:09;64.82;;;35.45;;
80411;SDS011;69749;42.684;23.360;2023-12-20T04:16:35;67.70;;;36.38;;
80411;SDS011;69749;42.684;23.360;2023-12-20T04:19:00;70.85;;;39.80;;
80411;SDS011;69749;42.684;23.360;2023-12-20T04:21:26;66.22;;;34.97;;
80411;SDS011;69749;42.684;23.360;2023-12-20T04:23:52;65.57;;;37.45;;
80411;SDS011;69749;42.684;23.360;2023-12-20T04:26:17;83.82;;;40.47;;
80411;SDS011;69749;42.684;23.360;2023-12-20T04:28:42;81.38;;;43.20;;
80411;SDS011;69749;42.684;23.360;2023-12-20T04:31:08;80.55;;;42.55;;
80411;SDS011;69749;42.684;23.360;2023-12-20T04:33:33;82.40;;;44.08;;
80411;SDS011;69749;42.684;23.360;2023-12-20T04:35:59;96.47;;;48.78;;
80411;SDS011;69749;42.684;23.360;2023-12-20T04:38:25;104.82;;;52.03;;
80411;SDS011;69749;42.684;23.360;2023-12-20T04:40:51;98.40;;;47.40;;
80411;SDS011;69749;42.684;23.360;2023-12-20T04:43:17;87.35;;;43.33;;
80411;SDS011;69749;42.684;23.360;2023-12-20T04:45:42;92.35;;;43.75;;
80411;SDS011;69749;42.684;23.360;2023-12-20T04:48:08;87.97;;;43.97;;
80411;SDS011;69749;42.684;23.360;2023-12-20T04:50:33;87.78;;;43.22;;
80411;SDS011;69749;42.684;23.360;2023-12-20T04:52:59;82.13;;;42.63;;
80411;SDS011;69749;42.684;23.360;2023-12-20T04:55:24;81.72;;;40.33;;
80411;SDS011;69749;42.684;23.360;2023-12-20T04:57:50;77.70;;;42.97;;
80411;SDS011;69749;42.684;23.360;2023-12-20T05:00:15;81.18;;;43.08;;
80411;SDS011;69749;42.684;23.360;2023-12-20T05:02:41;75.88;;;41.35;;
80411;SDS011;69749;42.684;23.360;2023-12-20T05:05:07;79.10;;;41.03;;
80411;SDS011;69749;42.684;23.360;2023-12-20T05:07:32;74.38;;;39.70;;
80411;SDS011;69749;42.684;23.360;2023-12-20T05:09:58;77.38;;;41.33;;
80411;SDS011;69749;42.684;23.360;2023-12-20T05:12:24;79.05;;;40.40;;
80411;SDS011;69749;42.684;23.360;2023-12-20T05:14:50;72.25;;;37.35;;
80411;SDS011;69749;42.684;23.360;2023-12-20T05:17:16;75.07;;;40.65;;
80411;SDS011;69749;42.684;23.360;2023-12-20T05:19:42;77.65;;;38.85;;
80411;SDS011;69749;42.684;23.360;2023-12-20T05:22:07;78.07;;;38.70;;
80411;SDS011;69749;42.684;23.360;2023-12-20T05:24:33;77.70;;;38.97;;
80411;SDS011;69749;42.684;23.360;2023-12-20T05:26:58;75.20;;;37.25;;
80411;SDS011;69749;42.684;23.360;2023-12-20T05:29:24;78.15;;;38.30;;
80411;SDS011;69749;42.684;23.360;2023-12-20T05:31:49;71.45;;;37.55;;
80411;SDS011;69749;42.684;23.360;2023-12-20T05:34:15;70.72;;;36.28;;
80411;SDS011;69749;42.684;23.360;2023-12-20T05:36:41;72.32;;;36.70;;
80411;SDS011;69749;42.684;23.360;2023-12-20T05:39:06;71.72;;;35.47;;
80411;SDS011;69749;42.684;23.360;2023-12-20T05:41:33;72.75;;;36.72;;
80411;SDS011;69749;42.684;23.360;2023-12-20T05:43:58;68.38;;;36.13;;
80411;SDS011;69749;42.684;23.360;2023-12-20T05:46:24;71.78;;;36.83;;
80411;SDS011;69749;42.684;23.360;2023-12-20T05:48:50;79.40;;;36.58;;
80411;SDS011;69749;42.684;23.360;2023-12-20T05:51:16;76.47;;;38.30;;
80411;SDS011;69749;42.684;23.360;2023-12-20T05:53:43;61.88;;;32.53;;
80411;SDS011;69749;42.684;23.360;2023-12-20T05:56:09;71.88;;;35.38;;
80411;SDS011;69749;42.684;23.360;2023-12-20T05:58:35;62.63;;;33.63;;
80411;SDS011;69749;42.684;23.360;2023-12-20T06:01:03;74.25;;;36.10;;
80411;SDS011;69749;42.684;23.360;2023-12-20T06:05:54;60.50;;;30.40;;
80411;SDS011;69749;42.684;23.360;2023-12-20T06:08:20;65.07;;;33.78;;
80411;SDS011;69749;42.684;23.360;2023-12-20T06:10:45;67.75;;;34.25;;
80411;SDS011;69749;42.684;23.360;2023-12-20T06:13:11;66.20;;;32.40;;
80411;SDS011;69749;42.684;23.360;2023-12-20T06:15:38;55.88;;;29.80;;
80411;SDS011;69749;42.684;23.360;2023-12-20T06:18:04;61.58;;;31.05;;
80411;SDS011;69749;42.684;23.360;2023-12-20T06:20:29;63.88;;;32.03;;
80411;SDS011;69749;42.684;23.360;2023-12-20T06:22:55;63.90;;;30.23;;
80411;SDS011;69749;42.684;23.360;2023-12-20T06:25:20;55.50;;;26.45;;
80411;SDS011;69749;42.684;23.360;2023-12-20T06:27:46;60.03;;;29.00;;
80411;SDS011;69749;42.684;23.360;2023-12-20T06:30:11;61.63;;;29.92;;
80411;SDS011;69749;42.684;23.360;2023-12-20T06:32:37;62.13;;;31.23;;
80411;SDS011;69749;42.684;23.360;2023-12-20T06:35:04;60.92;;;32.08;;
80411;SDS011;69749;42.684;23.360;2023-12-20T06:37:30;64.53;;;33.58;;
80411;SDS011;69749;42.684;23.360;2023-12-20T06:39:56;56.72;;;30.63;;
80411;SDS011;69749;42.684;23.360;2023-12-20T06:42:22;55.42;;;30.17;;
80411;SDS011;69749;42.684;23.360;2023-12-20T06:44:47;67.30;;;30.08;;
80411;SDS011;69749;42.684;23.360;2023-12-20T06:47:13;63.80;;;32.25;;
80411;SDS011;69749;42.684;23.360;2023-12-20T06:49:39;59.70;;;30.58;;
80411;SDS011;69749;42.684;23.360;2023-12-20T06:52:05;51.80;;;27.08;;
80411;SDS011;69749;42.684;23.360;2023-12-20T06:54:31;43.42;;;22.58;;
80411;SDS011;69749;42.684;23.360;2023-12-20T06:56:56;48.65;;;22.10;;
80411;SDS011;69749;42.684;23.360;2023-12-20T06:59:22;49.25;;;23.73;;
80411;SDS011;69749;42.684;23.360;2023-12-20T07:01:48;46.80;;;23.92;;
80411;SDS011;69749;42.684;23.360;2023-12-20T07:04:14;50.65;;;24.95;;
80411;SDS011;69749;42.684;23.360;2023-12-20T07:06:39;50.28;;;25.65;;
80411;SDS011;69749;42.684;23.360;2023-12-20T07:09:05;58.30;;;28.48;;
80411;SDS011;69749;42.684;23.360;2023-12-20T07:11:31;59.35;;;29.13;;
80411;SDS011;69749;42.684;23.360;2023-12-20T07:13:56;57.33;;;25.98;;
80411;SDS011;69749;42.684;23.360;2023-12-20T07:16:22;48.35;;;24.55;;
80411;SDS011;69749;42.684;23.360;2023-12-20T07:18:47;48.05;;;25.35;;
80411;SDS011;69749;42.684;23.360;2023-12-20T07:21:13;48.30;;;25.63;;
80411;SDS011;69749;42.684;23.360;2023-12-20T07:23:38;48.47;;;24.20;;
80411;SDS011;69749;42.684;23.360;2023-12-20T07:26:04;49.17;;;25.00;;
80411;SDS011;69749;42.684;23.360;2023-12-20T07:28:29;53.53;;;26.60;;
80411;SDS011;69749;42.684;23.360;2023-12-20T07:30:55;53.53;;;26.95;;
80411;SDS011;69749;42.684;23.360;2023-12-20T07:33:20;52.83;;;28.20;;
80411;SDS011;69749;42.684;23.360;2023-12-20T07:35:46;53.00;;;27.48;;
80411;SDS011;69749;42.684;23.360;2023-12-20T07:38:12;60.22;;;28.85;;
80411;SDS011;69749;42.684;23.360;2023-12-20T07:40:38;55.45;;;27.92;;
80411;SDS011;69749;42.684;23.360;2023-12-20T07:43:04;55.03;;;26.80;;
80411;SDS011;69749;42.684;23.360;2023-12-20T07:45:29;51.28;;;24.50;;
80411;SDS011;69749;42.684;23.360;2023-12-20T07:47:55;46.38;;;23.90;;
80411;SDS011;69749;42.684;23.360;2023-12-20T07:50:20;46.55;;;24.17;;
80411;SDS011;69749;42.684;23.360;2023-12-20T07:52:46;53.30;;;25.88;;
80411;SDS011;69749;42.684;23.360;2023-12-20T07:55:11;48.58;;;24.67;;
80411;SDS011;69749;42.684;23.360;2023-12-20T07:57:37;48.70;;;24.50;;
80411;SDS011;69749;42.684;23.360;2023-12-20T08:00:02;45.42;;;24.25;;
80411;SDS011;69749;42.684;23.360;2023-12-20T08:02:29;51.38;;;24.98;;
80411;SDS011;69749;42.684;23.360;2023-12-20T08:04:54;64.03;;;27.55;;
80411;SDS011;69749;42.684;23.360;2023-12-20T08:07:20;56.70;;;28.73;;
80411;SDS011;69749;42.684;23.360;2023-12-20T08:09:45;54.38;;;26.60;;
80411;SDS011;69749;42.684;23.360;2023-12-20T08:12:11;66.30;;;33.58;;
80411;SDS011;69749;42.684;23.360;2023-12-20T08:14:36;65.28;;;31.73;;
80411;SDS011;69749;42.684;23.360;2023-12-20T08:17:02;76.63;;;34.22;;
80411;SDS011;69749;42.684;23.360;2023-12-20T08:19:28;69.20;;;33.63;;
80411;SDS011;69749;42.684;23.360;2023-12-20T08:21:53;73.80;;;34.25;;
80411;SDS011;69749;42.684;23.360;2023-12-20T08:24:19;68.80;;;33.60;;
80411;SDS011;69749;42.684;23.360;2023-12-20T08:26:44;87.88;;;38.08;;
80411;SDS011;69749;42.684;23.360;2023-12-20T08:29:12;89.53;;;41.30;;
80411;SDS011;69749;42.684;23.360;2023-12-20T08:31:38;86.72;;;41.13;;
80411;SDS011;69749;42.684;23.360;2023-12-20T08:34:04;102.32;;;41.40;;
80411;SDS011;69749;42.684;23.360;2023-12-20T08:36:29;94.78;;;41.20;;
80411;SDS011;69749;42.684;23.360;2023-12-20T08:38:55;100.15;;;44.47;;
80411;SDS011;69749;42.684;23.360;2023-12-20T08:41:20;103.00;;;42.08;;
80411;SDS011;69749;42.684;23.360;2023-12-20T08:43:46;87.05;;;40.75;;
80411;SDS011;69749;42.684;23.360;2023-12-20T08:46:11;93.25;;;40.95;;
80411;SDS011;69749;42.684;23.360;2023-12-20T08:48:38;109.47;;;41.58;;
80411;SDS011;69749;42.684;23.360;2023-12-20T08:51:04;90.30;;;39.72;;
80411;SDS011;69749;42.684;23.360;2023-12-20T08:53:32;100.85;;;39.17;;
80411;SDS011;69749;42.684;23.360;2023-12-20T08:55:58;93.68;;;38.60;;
80411;SDS011;69749;42.684;23.360;2023-12-20T08:58:26;92.90;;;38.55;;
80411;SDS011;69749;42.684;23.360;2023-12-20T09:00:52;80.13;;;35.35;;
80411;SDS011;69749;42.684;23.360;2023-12-20T09:03:17;83.93;;;37.17;;
80411;SDS011;69749;42.684;23.360;2023-12-20T09:05:43;86.57;;;34.72;;
80411;SDS011;69749;42.684;23.360;2023-12-20T09:08:08;83.75;;;36.03;;
80411;SDS011;69749;42.684;23.360;2023-12-20T09:10:35;85.15;;;37.92;;
80411;SDS011;69749;42.684;23.360;2023-12-20T09:13:02;75.50;;;34.50;;
80411;SDS011;69749;42.684;23.360;2023-12-20T09:15:29;82.28;;;35.22;;
80411;SDS011;69749;42.684;23.360;2023-12-20T09:17:55;77.95;;;33.65;;
80411;SDS011;69749;42.684;23.360;2023-12-20T09:20:21;81.72;;;31.92;;
80411;SDS011;69749;42.684;23.360;2023-12-20T09:22:48;78.10;;;33.13;;
80411;SDS011;69749;42.684;23.360;2023-12-20T09:25:14;83.70;;;31.10;;
80411;SDS011;69749;42.684;23.360;2023-12-20T09:27:41;73.35;;;32.92;;
80411;SDS011;69749;42.684;23.360;2023-12-20T09:30:06;72.07;;;31.88;;
80411;SDS011;69749;42.684;23.360;2023-12-20T09:32:32;87.03;;;34.50;;
80411;SDS011;69749;42.684;23.360;2023-12-20T09:34:58;91.13;;;36.97;;
80411;SDS011;69749;42.684;23.360;2023-12-20T09:37:26;85.43;;;35.28;;
80411;SDS011;69749;42.684;23.360;2023-12-20T09:39:52;82.90;;;33.75;;
80411;SDS011;69749;42.684;23.360;2023-12-20T09:42:23;81.32;;;35.00;;
80411;SDS011;69749;42.684;23.360;2023-12-20T09:44:54;75.55;;;34.28;;
80411;SDS011;69749;42.684;23.360;2023-12-20T09:47:20;94.18;;;34.03;;
80411;SDS011;69749;42.684;23.360;2023-12-20T09:49:49;77.45;;;33.33;;
80411;SDS011;69749;42.684;23.360;2023-12-20T09:52:16;88.30;;;36.70;;
80411;SDS011;69749;42.684;23.360;2023-12-20T09:54:43;88.03;;;34.42;;
80411;SDS011;69749;42.684;23.360;2023-12-20T09:57:12;89.20;;;36.35;;
80411;SDS011;69749;42.684;23.360;2023-12-20T09:59:37;95.25;;;36.45;;
80411;SDS011;69749;42.684;23.360;2023-12-20T10:02:03;89.53;;;37.65;;
80411;SDS011;69749;42.684;23.360;2023-12-20T10:04:32;82.65;;;34.58;;
80411;SDS011;69749;42.684;23.360;2023-12-20T10:07:01;81.25;;;35.13;;
80411;SDS011;69749;42.684;23.360;2023-12-20T10:09:29;173.77;;;39.90;;
80411;SDS011;69749;42.684;23.360;2023-12-20T10:14:23;100.25;;;47.25;;
80411;SDS011;69749;42.684;23.360;2023-12-20T10:16:49;74.50;;;32.28;;
80411;SDS011;69749;42.684;23.360;2023-12-20T10:19:19;78.18;;;32.10;;
80411;SDS011;69749;42.684;23.360;2023-12-20T10:21:44;78.97;;;33.20;;
80411;SDS011;69749;42.684;23.360;2023-12-20T10:24:11;81.60;;;33.75;;
80411;SDS011;69749;42.684;23.360;2023-12-20T10:26:42;80.82;;;35.33;;
80411;SDS011;69749;42.684;23.360;2023-12-20T10:29:07;79.93;;;35.22;;
80411;SDS011;69749;42.684;23.360;2023-12-20T10:44:29;91.53;;;40.83;;
80411;SDS011;69749;42.684;23.360;2023-12-20T10:46:54;85.82;;;39.15;;
80411;SDS011;69749;42.684;23.360;2023-12-20T10:49:23;101.72;;;41.63;;
80411;SDS011;69749;42.684;23.360;2023-12-20T10:56:44;95.80;;;40.28;;
80411;SDS011;69749;42.684;23.360;2023-12-20T10:59:11;103.22;;;41.63;;
80411;SDS011;69749;42.684;23.360;2023-12-20T11:01:37;102.57;;;42.33;;
80411;SDS011;69749;42.684;23.360;2023-12-20T11:04:04;107.07;;;45.25;;
80411;SDS011;69749;42.684;23.360;2023-12-20T11:09:22;112.38;;;48.33;;
80411;SDS011;69749;42.684;23.360;2023-12-20T11:14:40;101.80;;;46.30;;
80411;SDS011;69749;42.684;23.360;2023-12-20T11:17:11;103.13;;;46.95;;
80411;SDS011;69749;42.684;23.360;2023-12-20T11:22:26;104.22;;;48.80;;
80411;SDS011;69749;42.684;23.360;2023-12-20T11:24:55;106.05;;;45.38;;
80411;SDS011;69749;42.684;23.360;2023-12-20T11:27:24;93.82;;;43.20;;
80411;SDS011;69749;42.684;23.360;2023-12-20T11:29:53;80.60;;;38.83;;
80411;SDS011;69749;42.684;23.360;2023-12-20T11:37:36;92.28;;;40.28;;
80411;SDS011;69749;42.684;23.360;2023-12-20T11:40:06;81.32;;;39.22;;
80411;SDS011;69749;42.684;23.360;2023-12-20T11:43:07;80.05;;;37.40;;
80411;SDS011;69749;42.684;23.360;2023-12-20T11:45:26;86.38;;;40.00;;
80411;SDS011;69749;42.684;23.360;2023-12-20T11:47:52;82.90;;;39.45;;
80411;SDS011;69749;42.684;23.360;2023-12-20T11:50:21;91.07;;;41.00;;
80411;SDS011;69749;42.684;23.360;2023-12-20T11:52:48;98.13;;;41.42;;
80411;SDS011;69749;42.684;23.360;2023-12-20T11:55:13;96.10;;;41.50;;
80411;SDS011;69749;42.684;23.360;2023-12-20T11:57:39;96.68;;;41.35;;
80411;SDS011;69749;42.684;23.360;2023-12-20T12:00:05;103.70;;;42.90;;
80411;SDS011;69749;42.684;23.360;2023-12-20T12:02:31;108.28;;;45.05;;
80411;SDS011;69749;42.684;23.360;2023-12-20T12:04:57;110.50;;;44.83;;
80411;SDS011;69749;42.684;23.360;2023-12-20T12:07:24;97.60;;;41.55;;
80411;SDS011;69749;42.684;23.360;2023-12-20T12:09:50;92.28;;;38.58;;
80411;SDS011;69749;42.684;23.360;2023-12-20T12:12:16;99.85;;;41.90;;
80411;SDS011;69749;42.684;23.360;2023-12-20T12:14:43;98.78;;;40.65;;
80411;SDS011;69749;42.684;23.360;2023-12-20T12:17:10;101.18;;;41.63;;
80411;SDS011;69749;42.684;23.360;2023-12-20T12:19:39;101.32;;;42.47;;
80411;SDS011;69749;42.684;23.360;2023-12-20T12:24:33;106.13;;;42.03;;
80411;SDS011;69749;42.684;23.360;2023-12-20T12:26:59;93.85;;;38.53;;
80411;SDS011;69749;42.684;23.360;2023-12-20T12:29:25;89.05;;;38.40;;
80411;SDS011;69749;42.684;23.360;2023-12-20T12:31:50;97.82;;;40.58;;
80411;SDS011;69749;42.684;23.360;2023-12-20T12:34:17;94.47;;;39.97;;
80411;SDS011;69749;42.684;23.360;2023-12-20T12:36:43;100.38;;;40.00;;
80411;SDS011;69749;42.684;23.360;2023-12-20T12:39:12;97.65;;;38.45;;
80411;SDS011;69749;42.684;23.360;2023-12-20T12:41:37;89.38;;;40.72;;
80411;SDS011;69749;42.684;23.360;2023-12-20T12:44:03;97.20;;;41.13;;
80411;SDS011;69749;42.684;23.360;2023-12-20T12:46:28;90.40;;;39.13;;
80411;SDS011;69749;42.684;23.360;2023-12-20T12:48:54;96.78;;;38.28;;
80411;SDS011;69749;42.684;23.360;2023-12-20T12:51:19;95.65;;;41.42;;
80411;SDS011;69749;42.684;23.360;2023-12-20T12:53:45;103.90;;;42.55;;
80411;SDS011;69749;42.684;23.360;2023-12-20T12:56:11;110.85;;;47.28;;
80411;SDS011;69749;42.684;23.360;2023-12-20T12:58:37;130.48;;;51.88;;
80411;SDS011;69749;42.684;23.360;2023-12-20T13:01:03;125.22;;;49.97;;
80411;SDS011;69749;42.684;23.360;2023-12-20T13:03:28;128.38;;;51.90;;
80411;SDS011;69749;42.684;23.360;2023-12-20T13:05:54;134.05;;;50.42;;
80411;SDS011;69749;42.684;23.360;2023-12-20T13:08:20;128.88;;;51.10;;
80411;SDS011;69749;42.684;23.360;2023-12-20T13:10:45;114.15;;;45.25;;
80411;SDS011;69749;42.684;23.360;2023-12-20T13:13:11;117.40;;;48.00;;
80411;SDS011;69749;42.684;23.360;2023-12-20T13:15:37;114.55;;;47.33;;
80411;SDS011;69749;42.684;23.360;2023-12-20T13:18:02;120.18;;;47.45;;
80411;SDS011;69749;42.684;23.360;2023-12-20T13:20:29;113.75;;;45.72;;
80411;SDS011;69749;42.684;23.360;2023-12-20T13:22:55;112.88;;;46.55;;
80411;SDS011;69749;42.684;23.360;2023-12-20T13:25:20;106.32;;;45.13;;
80411;SDS011;69749;42.684;23.360;2023-12-20T13:27:46;107.13;;;44.15;;
80411;SDS011;69749;42.684;23.360;2023-12-20T13:30:11;104.18;;;45.08;;
80411;SDS011;69749;42.684;23.360;2023-12-20T13:32:37;103.25;;;40.55;;
80411;SDS011;69749;42.684;23.360;2023-12-20T13:35:03;100.53;;;38.47;;
80411;SDS011;69749;42.684;23.360;2023-12-20T13:37:29;102.18;;;40.08;;
80411;SDS011;69749;42.684;23.360;2023-12-20T13:39:57;95.13;;;37.78;;
80411;SDS011;69749;42.684;23.360;2023-12-20T13:42:23;100.35;;;37.72;;
80411;SDS011;69749;42.684;23.360;2023-12-20T13:44:49;93.55;;;37.78;;
80411;SDS011;69749;42.684;23.360;2023-12-20T13:47:14;87.68;;;33.72;;
80411;SDS011;69749;42.684;23.360;2023-12-20T13:49:39;100.22;;;34.58;;
80411;SDS011;69749;42.684;23.360;2023-12-20T13:52:05;94.55;;;37.10;;
80411;SDS011;69749;42.684;23.360;2023-12-20T13:54:33;102.25;;;40.50;;
80411;SDS011;69749;42.684;23.360;2023-12-20T13:56:59;100.03;;;39.85;;
80411;SDS011;69749;42.684;23.360;2023-12-20T13:59:24;103.22;;;41.45;;
80411;SDS011;69749;42.684;23.360;2023-12-20T14:01:51;117.63;;;40.42;;
80411;SDS011;69749;42.684;23.360;2023-12-20T14:04:16;100.55;;;38.88;;
80411;SDS011;69749;42.684;23.360;2023-12-20T14:06:42;91.88;;;36.97;;
80411;SDS011;69749;42.684;23.360;2023-12-20T14:09:07;101.05;;;40.13;;
80411;SDS011;69749;42.684;23.360;2023-12-20T14:11:33;97.20;;;38.60;;
80411;SDS011;69749;42.684;23.360;2023-12-20T14:13:58;108.05;;;42.80;;
80411;SDS011;69749;42.684;23.360;2023-12-20T14:16:24;119.15;;;47.53;;
80411;SDS011;69749;42.684;23.360;2023-12-20T14:18:50;114.53;;;43.88;;
80411;SDS011;69749;42.684;23.360;2023-12-20T14:21:17;118.15;;;43.30;;
80411;SDS011;69749;42.684;23.360;2023-12-20T14:26:11;102.43;;;41.28;;
80411;SDS011;69749;42.684;23.360;2023-12-20T14:31:06;112.55;;;44.95;;
80411;SDS011;69749;42.684;23.360;2023-12-20T14:33:31;140.57;;;53.95;;
80411;SDS011;69749;42.684;23.360;2023-12-20T14:35:57;145.82;;;53.85;;
80411;SDS011;69749;42.684;23.360;2023-12-20T14:38:22;132.52;;;51.47;;
80411;SDS011;69749;42.684;23.360;2023-12-20T14:40:48;127.40;;;47.58;;
80411;SDS011;69749;42.684;23.360;2023-12-20T14:43:13;117.38;;;45.22;;
80411;SDS011;69749;42.684;23.360;2023-12-20T14:45:39;118.07;;;46.22;;